createdAt,value
2022-11-22T00:01:23.259Z,3.25
2022-11-22T00:03:51.740Z,3.38
2022-11-22T00:06:20.242Z,4.10
2022-11-22T00:08:48.488Z,3.65
2022-11-22T00:11:17.001Z,3.17
2022-11-22T00:13:45.520Z,3.40
2022-11-22T00:16:13.772Z,2.83
2022-11-22T00:18:43.339Z,4.05
2022-11-22T00:21:11.629Z,3.25
2022-11-22T00:23:39.925Z,3.10
2022-11-22T00:26:11.870Z,2.67
2022-11-22T00:28:40.673Z,2.67
2022-11-22T00:31:09.177Z,3.40
2022-11-22T00:33:37.755Z,4.10
2022-11-22T00:36:07.788Z,3.28
2022-11-22T00:38:36.349Z,2.97
2022-11-22T00:41:05.021Z,3.30
2022-11-22T00:43:33.620Z,3.25
2022-11-22T00:46:02.221Z,3.60
2022-11-22T00:48:30.794Z,3.40
2022-11-22T00:50:59.502Z,2.97
2022-11-22T00:53:29.111Z,3.15
2022-11-22T00:55:57.634Z,4.03
2022-11-22T00:58:26.347Z,2.65
2022-11-22T01:00:56.766Z,2.40
2022-11-22T01:03:25.667Z,2.78
2022-11-22T01:05:54.181Z,2.83
2022-11-22T01:08:22.507Z,4.00
2022-11-22T01:10:57.756Z,2.60
2022-11-22T01:13:26.844Z,2.92
2022-11-22T01:15:59.262Z,3.30
2022-11-22T01:18:27.831Z,3.58
2022-11-22T01:20:56.677Z,3.75
2022-11-22T01:23:25.391Z,3.65
2022-11-22T01:25:55.077Z,3.42
2022-11-22T01:28:23.423Z,3.85
2022-11-22T01:30:52.416Z,3.17
2022-11-22T01:33:21.567Z,3.38
2022-11-22T01:35:50.088Z,3.92
2022-11-22T01:38:18.774Z,4.68
2022-11-22T01:40:47.338Z,4.03
2022-11-22T01:43:20.670Z,4.07
2022-11-22T01:45:52.179Z,4.47
2022-11-22T01:48:33.230Z,4.72
2022-11-22T01:51:08.294Z,4.70
2022-11-22T01:53:39.969Z,4.63
2022-11-22T01:56:13.587Z,5.57
2022-11-22T01:58:46.278Z,5.43
2022-11-22T02:01:14.625Z,5.40
2022-11-22T02:03:47.291Z,5.82
2022-11-22T02:06:16.581Z,5.72
2022-11-22T02:08:54.964Z,6.10
2022-11-22T02:11:24.116Z,6.18
2022-11-22T02:13:54.679Z,6.97
2022-11-22T02:16:23.814Z,6.50
2022-11-22T02:18:52.072Z,6.47
2022-11-22T02:21:20.711Z,6.50
2022-11-22T02:23:57.628Z,7.15
2022-11-22T02:26:30.183Z,7.80
2022-11-22T02:29:05.105Z,7.05
2022-11-22T02:31:40.431Z,6.55
2022-11-22T02:34:09.222Z,7.80
2022-11-22T02:36:43.471Z,6.82
2022-11-22T02:39:14.487Z,6.28
2022-11-22T02:41:45.514Z,6.97
2022-11-22T02:44:14.576Z,7.47
2022-11-22T02:46:49.927Z,7.28
2022-11-22T02:49:20.327Z,5.97
2022-11-22T02:51:48.889Z,7.50
2022-11-22T02:54:17.742Z,8.60
2022-11-22T02:56:47.704Z,7.78
2022-11-22T02:59:16.253Z,8.13
2022-11-22T03:01:47.555Z,7.80
2022-11-22T03:04:24.825Z,6.70
2022-11-22T03:06:56.107Z,7.32
2022-11-22T03:09:25.274Z,6.47
2022-11-22T03:11:55.363Z,6.68
2022-11-22T03:14:24.204Z,7.00
2022-11-22T03:16:52.539Z,8.57
2022-11-22T03:19:21.142Z,7.45
2022-11-22T03:21:49.714Z,8.27
2022-11-22T03:24:19.939Z,7.85
2022-11-22T03:26:49.638Z,7.75
2022-11-22T03:29:19.487Z,7.13
2022-11-22T03:31:48.049Z,7.60
2022-11-22T03:34:17.190Z,5.63
2022-11-22T03:36:45.726Z,6.03
2022-11-22T03:39:14.147Z,6.60
2022-11-22T03:41:42.539Z,6.00
2022-11-22T03:44:11.025Z,6.25
2022-11-22T03:46:40.583Z,5.28
2022-11-22T03:49:08.853Z,6.32
2022-11-22T03:51:37.398Z,5.00
2022-11-22T03:54:06.069Z,5.45
2022-11-22T03:56:34.322Z,6.00
2022-11-22T03:59:02.896Z,4.32
2022-11-22T04:01:31.385Z,5.63
2022-11-22T04:04:01.247Z,4.88
2022-11-22T04:06:29.919Z,4.78
2022-11-22T04:08:58.411Z,5.07
2022-11-22T04:11:26.982Z,5.38
2022-11-22T04:14:13.622Z,4.05
2022-11-22T04:16:42.208Z,5.55
2022-11-22T04:19:11.959Z,5.78
2022-11-22T04:21:39.284Z,4.85
2022-11-22T04:24:27.187Z,6.25
2022-11-22T04:26:55.818Z,5.60
2022-11-22T04:29:24.608Z,5.28
2022-11-22T04:32:11.020Z,5.45
2022-11-22T04:34:40.738Z,5.43
2022-11-22T04:37:09.578Z,4.18
2022-11-22T04:39:38.163Z,5.40
2022-11-22T04:42:24.286Z,3.60
2022-11-22T04:44:52.842Z,2.78
2022-11-22T04:47:38.991Z,3.15
2022-11-22T04:50:24.600Z,2.60
2022-11-22T04:52:55.730Z,2.72
2022-11-22T04:55:24.570Z,2.60
2022-11-22T04:57:57.752Z,3.58
2022-11-22T05:00:28.663Z,2.65
2022-11-22T05:02:57.230Z,3.03
2022-11-22T05:05:27.592Z,3.20
2022-11-22T05:07:56.723Z,2.65
2022-11-22T05:10:27.071Z,3.20
2022-11-22T05:12:56.496Z,2.90
2022-11-22T05:15:25.181Z,2.67
2022-11-22T05:17:53.737Z,2.78
2022-11-22T05:20:22.234Z,2.25
2022-11-22T05:23:09.221Z,2.58
2022-11-22T05:25:37.800Z,2.15
2022-11-22T05:28:06.401Z,5.38
2022-11-22T05:30:35.029Z,3.38
2022-11-22T05:33:03.539Z,2.80
2022-11-22T05:35:32.005Z,2.47
2022-11-22T05:38:01.587Z,2.53
2022-11-22T05:40:30.281Z,2.65
2022-11-22T05:42:59.532Z,2.95
2022-11-22T05:45:28.142Z,3.05
2022-11-22T05:47:57.518Z,2.30
2022-11-22T05:50:26.254Z,2.95
2022-11-22T05:53:03.320Z,3.17
2022-11-22T05:55:32.169Z,1.92
2022-11-22T05:58:01.275Z,1.50
2022-11-22T06:00:30.303Z,1.60
2022-11-22T06:03:02.461Z,2.75
2022-11-22T06:05:31.393Z,2.30
2022-11-22T06:08:01.370Z,2.55
2022-11-22T06:10:31.042Z,1.80
2022-11-22T06:12:59.765Z,1.50
2022-11-22T06:15:28.322Z,2.58
2022-11-22T06:17:56.877Z,1.42
2022-11-22T06:20:25.398Z,1.38
2022-11-22T06:22:54.037Z,2.97
2022-11-22T06:25:22.586Z,1.10
2022-11-22T06:27:52.207Z,1.33
2022-11-22T06:30:20.834Z,1.60
2022-11-22T06:32:49.310Z,2.05
2022-11-22T06:35:17.650Z,1.50
2022-11-22T06:37:45.822Z,1.80
2022-11-22T06:40:15.407Z,2.28
2022-11-22T06:42:43.927Z,1.98
2022-11-22T06:45:13.767Z,1.50
2022-11-22T06:47:42.251Z,1.80
2022-11-22T06:50:11.232Z,2.50
2022-11-22T06:52:39.817Z,1.15
2022-11-22T06:55:34.520Z,1.10
2022-11-22T06:57:57.369Z,2.00
2022-11-22T07:00:26.956Z,1.55
2022-11-22T07:02:55.506Z,1.90
2022-11-22T07:05:25.932Z,2.03
2022-11-22T07:07:57.825Z,1.13
2022-11-22T07:10:31.506Z,1.45
2022-11-22T07:13:00.026Z,1.98
2022-11-22T07:15:29.822Z,1.40
2022-11-22T07:17:58.514Z,1.95
2022-11-22T07:20:27.046Z,1.33
2022-11-22T07:22:55.539Z,1.90
2022-11-22T07:25:24.178Z,1.60
2022-11-22T07:27:53.560Z,1.42
2022-11-22T07:30:22.294Z,1.80
2022-11-22T07:32:51.885Z,1.33
2022-11-22T07:35:20.410Z,1.50
2022-11-22T07:37:48.683Z,1.60
2022-11-22T07:40:17.736Z,2.13
2022-11-22T07:42:46.201Z,1.63
2022-11-22T07:45:14.788Z,2.45
2022-11-22T07:47:43.299Z,1.50
2022-11-22T07:50:13.108Z,1.70
2022-11-22T07:52:41.298Z,2.08
2022-11-22T07:55:14.275Z,2.33
2022-11-22T07:57:43.305Z,1.27
2022-11-22T08:00:14.393Z,1.85
2022-11-22T08:02:43.056Z,2.00
2022-11-22T08:05:12.612Z,1.42
2022-11-22T08:07:46.319Z,2.00
2022-11-22T08:10:15.312Z,2.00
2022-11-22T08:12:44.217Z,1.67
2022-11-22T08:15:14.041Z,1.75
2022-11-22T08:17:42.479Z,1.98
2022-11-22T08:20:13.168Z,2.17
2022-11-22T08:22:42.300Z,2.08
2022-11-22T08:25:13.378Z,2.30
2022-11-22T08:27:42.111Z,1.75
2022-11-22T08:30:12.074Z,1.88
2022-11-22T08:32:40.908Z,1.58
2022-11-22T08:35:10.273Z,2.38
2022-11-22T08:37:39.867Z,2.25
2022-11-22T08:40:10.066Z,2.05
2022-11-22T08:42:38.349Z,2.08
2022-11-22T08:45:08.103Z,1.50
2022-11-22T08:47:36.697Z,2.10
2022-11-22T08:50:05.879Z,2.35
2022-11-22T08:52:35.820Z,1.75
2022-11-22T08:55:06.378Z,1.85
2022-11-22T08:57:34.931Z,2.33
2022-11-22T09:00:03.732Z,1.58
2022-11-22T09:02:31.972Z,2.78
2022-11-22T09:05:00.461Z,2.38
2022-11-22T09:10:19.813Z,1.60
2022-11-22T09:12:48.643Z,1.63
2022-11-22T09:15:17.623Z,1.80
2022-11-22T09:17:46.162Z,2.33
2022-11-22T09:20:14.752Z,2.83
2022-11-22T09:22:43.234Z,2.55
2022-11-22T09:25:12.125Z,2.45
2022-11-22T09:27:41.696Z,1.90
2022-11-22T09:30:11.460Z,1.77
2022-11-22T09:32:39.965Z,1.83
2022-11-22T09:35:08.760Z,2.13
2022-11-22T09:37:37.243Z,2.20
2022-11-22T09:40:06.919Z,1.90
2022-11-22T09:43:07.960Z,2.63
2022-11-22T09:46:08.712Z,1.73
2022-11-22T09:49:06.720Z,1.85
2022-11-22T09:51:42.731Z,2.30
2022-11-22T09:54:16.434Z,1.83
2022-11-22T09:56:46.244Z,1.73
2022-11-22T09:59:24.659Z,2.05
2022-11-22T10:02:03.423Z,2.25
2022-11-22T10:04:47.666Z,1.80
2022-11-22T10:07:20.374Z,2.53
2022-11-22T10:09:55.943Z,2.00
2022-11-22T10:12:30.567Z,1.15
2022-11-22T10:15:07.834Z,1.58
2022-11-22T10:17:53.594Z,2.08
2022-11-22T10:20:24.304Z,1.80
2022-11-22T10:22:53.309Z,1.52
2022-11-22T10:25:28.544Z,2.15
2022-11-22T10:28:01.759Z,1.50
2022-11-22T10:30:40.385Z,1.38
2022-11-22T10:33:18.103Z,1.98
2022-11-22T10:36:04.630Z,1.83
2022-11-22T10:38:59.792Z,1.02
2022-11-22T10:41:44.992Z,1.95
2022-11-22T10:44:29.612Z,1.52
2022-11-22T10:47:11.971Z,1.67
2022-11-22T10:49:53.662Z,1.55
2022-11-22T10:52:35.244Z,2.08
2022-11-22T10:55:22.217Z,2.58
2022-11-22T10:58:01.533Z,1.77
2022-11-22T11:00:32.871Z,1.73
2022-11-22T11:03:14.820Z,2.00
2022-11-22T11:06:21.014Z,1.77
2022-11-22T11:09:23.261Z,1.58
2022-11-22T11:11:32.003Z,1.45
2022-11-22T11:14:05.639Z,1.83
2022-11-22T11:16:38.119Z,1.50
2022-11-22T11:19:18.119Z,1.90
2022-11-22T11:21:46.701Z,2.53
2022-11-22T11:24:17.856Z,1.40
2022-11-22T11:26:55.202Z,1.50
2022-11-22T11:29:39.454Z,2.00
2022-11-22T11:32:14.432Z,2.17
2022-11-22T11:34:53.763Z,2.63
2022-11-22T11:37:28.451Z,1.75
2022-11-22T11:42:29.262Z,1.92
2022-11-22T11:45:28.339Z,1.95
2022-11-22T11:47:56.926Z,1.58
2022-11-22T11:50:29.928Z,1.05
2022-11-22T11:53:05.440Z,1.90
2022-11-22T11:55:36.904Z,0.93
2022-11-22T11:58:17.794Z,1.48
2022-11-22T12:00:46.847Z,1.63
2022-11-22T12:03:20.219Z,1.33
2022-11-22T12:06:09.834Z,1.08
2022-11-22T12:08:38.378Z,1.55
2022-11-22T12:11:14.015Z,1.55
2022-11-22T12:14:12.359Z,2.03
2022-11-22T12:16:38.723Z,1.65
2022-11-22T12:19:25.038Z,2.13
2022-11-22T12:22:06.016Z,1.60
2022-11-22T12:24:57.009Z,1.48
2022-11-22T12:27:29.683Z,1.17
2022-11-22T12:29:59.860Z,1.17
2022-11-22T12:32:36.822Z,1.33
2022-11-22T12:35:12.459Z,1.10
2022-11-22T12:37:49.461Z,1.13
2022-11-22T12:40:24.542Z,1.40
2022-11-22T12:42:58.587Z,1.48
2022-11-22T12:45:31.956Z,1.67
2022-11-22T12:48:06.422Z,1.55
2022-11-22T12:50:41.340Z,0.63
2022-11-22T12:53:15.180Z,1.15
2022-11-22T12:55:52.263Z,1.40
2022-11-22T12:58:28.753Z,0.70
2022-11-22T13:01:10.387Z,0.85
2022-11-22T13:03:46.777Z,0.93
2022-11-22T13:06:17.875Z,0.77
2022-11-22T13:09:03.211Z,1.27
2022-11-22T13:11:38.328Z,1.35
2022-11-22T13:14:15.178Z,0.95
2022-11-22T13:16:48.015Z,1.02
2022-11-22T13:19:18.394Z,1.00
2022-11-22T13:22:06.630Z,0.90
2022-11-22T13:24:56.158Z,1.58
2022-11-22T13:27:30.686Z,0.93
2022-11-22T13:30:01.967Z,1.45
2022-11-22T13:32:33.681Z,1.50
2022-11-22T13:35:08.050Z,1.73
2022-11-22T13:37:39.983Z,2.30
2022-11-22T13:40:28.365Z,1.35
2022-11-22T13:43:51.409Z,2.25
2022-11-22T13:46:56.205Z,1.10
2022-11-22T13:49:41.255Z,1.10
2022-11-22T13:52:52.522Z,1.20
2022-11-22T13:55:33.858Z,0.88
2022-11-22T13:58:51.171Z,1.25
2022-11-22T14:01:59.092Z,1.85
2022-11-22T14:04:40.802Z,1.42
2022-11-22T14:07:38.491Z,1.08
2022-11-22T14:10:32.511Z,1.30
2022-11-22T14:13:37.466Z,1.30
2022-11-22T14:16:19.991Z,1.03
2022-11-22T14:19:10.638Z,1.02
2022-11-22T14:21:51.964Z,1.05
2022-11-22T14:24:36.882Z,1.27
2022-11-22T14:27:26.828Z,1.55
2022-11-22T14:30:18.193Z,1.10
2022-11-22T14:33:00.399Z,1.48
2022-11-22T14:35:36.848Z,1.35
2022-11-22T14:38:32.106Z,0.80
2022-11-22T14:41:43.116Z,0.85
2022-11-22T14:44:18.203Z,1.10
2022-11-22T14:46:54.497Z,1.15
2022-11-22T14:49:42.006Z,1.00
2022-11-22T14:52:26.637Z,0.73
2022-11-22T14:54:59.736Z,0.98
2022-11-22T14:57:32.101Z,0.95
2022-11-22T15:00:19.719Z,0.77
2022-11-22T15:03:46.527Z,0.90
2022-11-22T15:09:11.061Z,1.38
2022-11-22T15:09:56.100Z,0.52
2022-11-22T15:12:56.434Z,0.88
2022-11-22T15:59:44.056Z,1.00
2022-11-22T16:02:17.818Z,0.50
2022-11-22T16:06:05.400Z,0.50
2022-11-22T16:07:43.282Z,1.27
2022-11-22T16:10:22.000Z,0.52
2022-11-22T16:12:51.470Z,1.13
2022-11-22T16:15:30.590Z,1.02
2022-11-22T16:18:09.626Z,1.02
2022-11-22T16:20:41.595Z,0.93
2022-11-22T16:23:26.934Z,0.85
2022-11-22T16:26:00.013Z,0.98
2022-11-22T16:28:32.915Z,1.08
2022-11-22T16:31:05.221Z,0.73
2022-11-22T16:33:34.040Z,1.20
2022-11-22T16:36:05.751Z,1.10
2022-11-22T16:38:33.997Z,0.90
2022-11-22T16:41:02.984Z,1.13
2022-11-22T16:43:36.151Z,0.88
2022-11-22T16:46:04.969Z,1.00
2022-11-22T16:48:33.701Z,1.35
2022-11-22T16:51:08.009Z,1.00
2022-11-22T16:53:42.286Z,1.25
2022-11-22T16:56:20.259Z,1.27
2022-11-22T16:58:50.372Z,1.42
2022-11-22T17:01:22.098Z,2.22
2022-11-22T17:03:54.223Z,1.15
2022-11-22T17:06:26.002Z,1.60
2022-11-22T17:08:57.406Z,1.30
2022-11-22T17:11:30.338Z,0.93
2022-11-22T17:13:59.106Z,1.77
2022-11-22T17:16:27.666Z,1.20
2022-11-22T17:18:55.963Z,1.88
2022-11-22T17:21:32.931Z,0.80
2022-11-22T17:24:08.179Z,1.83
2022-11-22T17:26:36.805Z,1.40
2022-11-22T17:29:06.651Z,1.48
2022-11-22T17:31:37.494Z,1.52
2022-11-22T17:34:05.769Z,1.50
2022-11-22T17:36:37.119Z,1.17
2022-11-22T17:39:09.445Z,1.60
2022-11-22T17:41:38.155Z,1.38
2022-11-22T17:44:07.016Z,1.55
2022-11-22T17:46:38.193Z,1.50
2022-11-22T17:49:09.066Z,2.10
2022-11-22T17:51:41.472Z,2.00
2022-11-22T17:54:09.930Z,1.90
2022-11-22T17:56:38.152Z,1.95
2022-11-22T17:59:06.978Z,2.92
2022-11-22T18:01:36.770Z,2.08
2022-11-22T18:04:05.400Z,1.63
2022-11-22T18:06:33.637Z,1.63
2022-11-22T18:09:03.353Z,1.77
2022-11-22T18:11:31.850Z,1.88
2022-11-22T18:14:00.359Z,1.02
2022-11-22T18:16:29.982Z,1.80
2022-11-22T18:18:59.039Z,1.73
2022-11-22T18:21:29.693Z,1.80
2022-11-22T18:23:58.900Z,2.00
2022-11-22T18:26:39.353Z,2.20
2022-11-22T18:31:58.857Z,2.05
2022-11-22T18:34:27.511Z,1.65
2022-11-22T18:37:01.562Z,1.80
2022-11-22T18:39:32.929Z,1.70
2022-11-22T18:42:02.980Z,1.45
2022-11-22T18:44:31.548Z,1.52
2022-11-22T18:47:00.096Z,1.95
2022-11-22T18:49:29.368Z,1.52
2022-11-22T18:51:58.307Z,2.13
2022-11-22T18:54:27.246Z,1.75
2022-11-22T18:56:55.444Z,1.65
2022-11-22T18:59:25.031Z,1.70
2022-11-22T19:01:53.572Z,1.60
2022-11-22T19:04:22.080Z,2.40
2022-11-22T19:06:51.348Z,2.30
2022-11-22T19:09:19.857Z,1.85
2022-11-22T19:11:48.347Z,2.33
2022-11-22T19:14:17.127Z,2.10
2022-11-22T19:16:46.675Z,1.70
2022-11-22T19:19:15.317Z,2.17
2022-11-22T19:21:43.824Z,2.47
2022-11-22T19:24:12.594Z,2.00
2022-11-22T19:26:41.187Z,2.20
2022-11-22T19:29:09.821Z,2.22
2022-11-22T19:31:38.310Z,3.17
2022-11-22T19:34:07.899Z,2.88
2022-11-22T19:36:37.609Z,2.55
2022-11-22T19:39:07.152Z,3.15
2022-11-22T19:41:35.538Z,3.22
2022-11-22T19:44:04.498Z,2.90
2022-11-22T19:46:33.026Z,2.72
2022-11-22T19:49:02.347Z,2.70
2022-11-22T19:51:32.876Z,2.63
2022-11-22T19:54:03.074Z,3.13
2022-11-22T19:56:33.787Z,3.85
2022-11-22T19:59:05.056Z,3.42
2022-11-22T20:01:35.472Z,3.42
2022-11-22T20:04:07.015Z,3.63
2022-11-22T20:06:37.696Z,3.38
2022-11-22T20:09:10.582Z,4.18
2022-11-22T20:11:40.046Z,4.72
2022-11-22T20:14:09.367Z,4.45
2022-11-22T20:16:41.142Z,3.75
2022-11-22T20:19:10.588Z,3.33
2022-11-22T20:21:41.959Z,3.05
2022-11-22T20:24:10.862Z,1.70
2022-11-22T20:26:39.075Z,1.70
2022-11-22T20:29:09.428Z,1.42
2022-11-22T20:31:38.491Z,2.20
2022-11-22T20:34:07.016Z,1.85
2022-11-22T20:36:36.140Z,2.28
2022-11-22T20:39:11.255Z,2.00
2022-11-22T20:41:40.722Z,1.83
2022-11-22T20:44:12.092Z,1.65
2022-11-22T20:46:41.282Z,2.78
2022-11-22T20:49:09.512Z,2.83
2022-11-22T20:51:39.725Z,2.17
2022-11-22T20:54:10.753Z,2.85
2022-11-22T20:56:39.318Z,2.33
2022-11-22T20:59:07.684Z,2.83
2022-11-22T21:01:36.191Z,2.75
2022-11-22T21:04:04.850Z,2.97
2022-11-22T21:06:34.955Z,2.88
2022-11-22T21:09:03.614Z,3.03
2022-11-22T21:11:33.164Z,2.70
2022-11-22T21:14:01.408Z,2.40
2022-11-22T21:16:31.354Z,2.75
2022-11-22T21:19:01.931Z,3.40
2022-11-22T21:21:32.252Z,3.55
2022-11-22T21:24:02.349Z,4.07
2022-11-22T21:26:33.096Z,4.28
2022-11-22T21:29:03.269Z,4.68
2022-11-22T21:31:31.570Z,5.68
2022-11-22T21:33:59.762Z,5.45
2022-11-22T21:36:28.292Z,5.70
2022-11-22T21:38:56.771Z,6.03
2022-11-22T21:41:39.852Z,5.72
2022-11-22T21:44:11.535Z,5.43
2022-11-22T21:46:40.584Z,7.90
2022-11-22T21:49:09.235Z,5.70
2022-11-22T21:51:37.949Z,5.80
2022-11-22T21:54:06.845Z,5.45
2022-11-22T21:56:35.545Z,5.38
2022-11-22T21:59:03.871Z,6.40
2022-11-22T22:01:33.928Z,5.05
2022-11-22T22:04:03.020Z,4.15
2022-11-22T22:06:31.682Z,5.05
2022-11-22T22:09:00.787Z,5.70
2022-11-22T22:11:29.287Z,4.47
2022-11-22T22:13:58.858Z,4.38
2022-11-22T22:16:27.433Z,5.40
2022-11-22T22:18:57.020Z,5.10
2022-11-22T22:21:25.542Z,4.05
2022-11-22T22:23:54.390Z,4.57
2022-11-22T22:26:22.882Z,4.43
2022-11-22T22:28:52.922Z,4.68
2022-11-22T22:31:23.545Z,4.50
2022-11-22T22:33:54.832Z,5.88
2022-11-22T22:36:26.791Z,5.18
2022-11-22T22:38:55.991Z,4.97
2022-11-22T22:41:24.461Z,4.43
2022-11-22T22:43:53.029Z,3.78
2022-11-22T22:46:24.680Z,3.85
2022-11-22T22:48:56.085Z,4.35
2022-11-22T22:51:32.883Z,3.70
2022-11-22T22:54:02.146Z,4.22
2022-11-22T22:56:32.189Z,4.10
2022-11-22T22:59:01.576Z,4.30
2022-11-22T23:01:32.129Z,3.78
2022-11-22T23:04:02.168Z,3.70
2022-11-22T23:06:34.308Z,4.22
2022-11-22T23:09:04.073Z,3.33
2022-11-22T23:11:51.358Z,3.10
2022-11-22T23:14:21.534Z,3.20
2022-11-22T23:16:54.562Z,3.17
2022-11-22T23:19:26.298Z,3.42
2022-11-22T23:21:56.210Z,2.40
2022-11-22T23:24:24.740Z,2.00
2022-11-22T23:26:53.255Z,2.92
2022-11-22T23:29:21.511Z,2.80
2022-11-22T23:31:49.989Z,2.35
2022-11-22T23:34:18.549Z,3.05
2022-11-22T23:36:47.082Z,3.58
2022-11-22T23:39:16.849Z,3.17
2022-11-22T23:41:45.946Z,3.42
2022-11-22T23:44:14.518Z,3.50
2022-11-22T23:46:43.103Z,3.60
2022-11-22T23:49:13.046Z,2.95
2022-11-22T23:51:41.407Z,3.85
2022-11-22T23:54:10.742Z,3.65
2022-11-22T23:56:40.302Z,3.38
2022-11-22T23:59:08.735Z,2.33
